createdAt,value
2023-03-15T00:02:16.442Z,55.04
2023-03-15T00:04:47.738Z,55.07
2023-03-15T00:07:18.409Z,55.15
2023-03-15T00:09:52.031Z,54.79
2023-03-15T00:12:25.381Z,54.89
2023-03-15T00:14:56.222Z,54.67
2023-03-15T00:17:26.925Z,54.53
2023-03-15T00:19:57.998Z,53.67
2023-03-15T00:22:28.439Z,53.19
2023-03-15T00:24:59.093Z,52.85
2023-03-15T00:27:29.812Z,52.93
2023-03-15T00:30:00.487Z,52.54
2023-03-15T00:32:32.712Z,52.78
2023-03-15T00:35:05.839Z,52.49
2023-03-15T00:37:39.430Z,52.61
2023-03-15T00:40:10.974Z,52.15
2023-03-15T00:42:42.146Z,52.14
2023-03-15T00:45:12.528Z,51.60
2023-03-15T00:47:43.248Z,51.28
2023-03-15T00:50:14.045Z,51.47
2023-03-15T00:52:47.175Z,51.37
2023-03-15T00:55:20.650Z,51.04
2023-03-15T00:57:52.116Z,51.40
2023-03-15T01:00:31.660Z,51.11
2023-03-15T01:03:02.959Z,50.75
2023-03-15T01:05:33.605Z,50.48
2023-03-15T01:08:04.069Z,50.78
2023-03-15T01:10:37.028Z,50.58
2023-03-15T01:13:08.971Z,50.17
2023-03-15T01:15:40.380Z,50.26
2023-03-15T01:18:11.266Z,49.89
2023-03-15T01:20:45.037Z,49.44
2023-03-15T01:23:17.575Z,49.35
2023-03-15T01:25:50.894Z,49.28
2023-03-15T01:28:23.816Z,49.60
2023-03-15T01:30:54.674Z,49.62
2023-03-15T01:33:25.189Z,49.41
2023-03-15T01:36:07.689Z,49.27
2023-03-15T01:38:40.005Z,49.14
2023-03-15T01:41:15.058Z,49.58
2023-03-15T01:43:49.618Z,49.87
2023-03-15T01:46:35.388Z,49.68
2023-03-15T01:49:23.850Z,49.66
2023-03-15T01:52:03.256Z,49.56
2023-03-15T01:54:51.568Z,49.91
2023-03-15T01:57:33.172Z,49.94
2023-03-15T02:00:13.041Z,50.37
2023-03-15T02:02:53.722Z,50.52
2023-03-15T02:05:33.343Z,50.06
2023-03-15T02:08:10.478Z,50.04
2023-03-15T02:10:45.740Z,50.42
2023-03-15T02:13:20.034Z,50.54
2023-03-15T02:15:51.600Z,50.52
2023-03-15T02:18:38.431Z,50.27
2023-03-15T02:21:25.013Z,50.25
2023-03-15T02:24:21.744Z,50.61
2023-03-15T02:26:56.459Z,50.14
2023-03-15T02:29:29.700Z,50.15
2023-03-15T02:32:01.876Z,49.86
2023-03-15T02:34:33.067Z,49.66
2023-03-15T02:37:04.014Z,49.54
2023-03-15T02:39:35.267Z,49.70
2023-03-15T02:42:05.801Z,49.49
2023-03-15T02:44:39.675Z,49.71
2023-03-15T02:47:17.514Z,50.07
2023-03-15T02:49:53.190Z,50.50
2023-03-15T02:52:27.460Z,50.34
2023-03-15T02:54:58.796Z,50.29
2023-03-15T02:57:30.782Z,49.80
2023-03-15T03:00:07.411Z,49.17
2023-03-15T03:02:39.612Z,49.28
2023-03-15T03:05:17.225Z,49.34
2023-03-15T03:07:48.072Z,49.14
2023-03-15T03:10:22.114Z,48.88
2023-03-15T03:12:56.571Z,49.15
2023-03-15T03:15:36.827Z,49.10
2023-03-15T03:18:07.779Z,49.10
2023-03-15T03:20:39.354Z,49.13
2023-03-15T03:23:10.343Z,49.01
2023-03-15T03:25:41.061Z,48.66
2023-03-15T03:28:11.721Z,48.48
2023-03-15T03:30:42.967Z,48.22
2023-03-15T03:33:13.987Z,48.43
2023-03-15T03:35:44.923Z,48.54
2023-03-15T03:38:19.527Z,48.48
2023-03-15T03:40:57.186Z,48.12
2023-03-15T03:43:27.622Z,48.15
2023-03-15T03:45:58.606Z,48.00
2023-03-15T03:48:30.636Z,48.33
2023-03-15T03:51:04.000Z,48.20
2023-03-15T03:53:36.376Z,48.18
2023-03-15T03:56:08.691Z,48.31
2023-03-15T03:58:40.818Z,48.41
2023-03-15T04:01:17.653Z,48.16
2023-03-15T04:03:53.481Z,47.98
2023-03-15T04:06:27.688Z,48.19
2023-03-15T04:08:58.458Z,47.81
2023-03-15T04:11:37.129Z,48.04
2023-03-15T04:14:15.112Z,48.06
2023-03-15T04:16:48.091Z,47.89
2023-03-15T04:19:22.577Z,48.23
2023-03-15T04:21:55.065Z,48.02
2023-03-15T04:24:44.598Z,48.31
2023-03-15T04:27:19.835Z,47.64
2023-03-15T04:30:27.904Z,47.46
2023-03-15T04:33:18.431Z,47.90
2023-03-15T04:36:19.867Z,47.94
2023-03-15T04:39:19.615Z,47.61
2023-03-15T04:42:05.769Z,47.34
2023-03-15T04:45:02.453Z,46.94
2023-03-15T04:47:55.869Z,46.49
2023-03-15T04:50:49.458Z,46.20
2023-03-15T04:53:32.090Z,46.27
2023-03-15T04:56:32.250Z,46.45
2023-03-15T04:59:29.289Z,46.06
2023-03-15T05:02:18.232Z,46.11
2023-03-15T05:05:07.256Z,45.57
2023-03-15T05:07:56.322Z,45.74
2023-03-15T05:10:46.884Z,45.91
2023-03-15T05:13:35.555Z,45.81
2023-03-15T05:16:25.699Z,45.30
2023-03-15T05:19:19.943Z,45.47
2023-03-15T05:22:09.646Z,44.44
2023-03-15T05:24:40.869Z,45.14
2023-03-15T05:27:29.332Z,45.58
2023-03-15T05:30:34.530Z,46.11
2023-03-15T05:33:13.343Z,45.95
2023-03-15T05:35:50.564Z,46.09
2023-03-15T05:38:59.784Z,46.86
2023-03-15T05:41:43.196Z,46.03
2023-03-15T05:44:33.354Z,46.01
2023-03-15T05:47:17.158Z,46.33
2023-03-15T05:50:06.035Z,45.92
2023-03-15T05:52:52.964Z,45.99
2023-03-15T05:55:34.560Z,46.01
2023-03-15T05:58:38.342Z,46.08
2023-03-15T06:01:29.153Z,46.60
2023-03-15T06:04:12.963Z,46.80
2023-03-15T06:06:44.451Z,46.15
2023-03-15T06:09:16.165Z,46.30
2023-03-15T06:11:48.787Z,45.89
2023-03-15T06:14:22.442Z,45.78
2023-03-15T06:16:59.861Z,45.39
2023-03-15T06:19:32.243Z,45.55
2023-03-15T06:22:04.696Z,45.63
2023-03-15T06:24:51.387Z,45.50
2023-03-15T06:27:23.005Z,45.36
2023-03-15T06:29:57.113Z,45.33
2023-03-15T06:32:28.286Z,44.91
2023-03-15T06:35:00.116Z,45.19
2023-03-15T06:37:35.474Z,45.36
2023-03-15T06:40:10.995Z,45.66
2023-03-15T06:42:42.709Z,44.61
2023-03-15T06:45:17.378Z,44.17
2023-03-15T06:47:51.796Z,44.27
2023-03-15T06:50:23.084Z,44.06
2023-03-15T06:52:53.701Z,44.92
2023-03-15T06:55:25.436Z,45.17
2023-03-15T06:57:56.209Z,45.14
2023-03-15T07:00:27.251Z,45.20
2023-03-15T07:03:01.887Z,44.92
2023-03-15T07:05:33.140Z,44.97
2023-03-15T07:08:04.181Z,44.84
2023-03-15T07:10:35.403Z,45.03
2023-03-15T07:13:07.835Z,44.79
2023-03-15T07:15:39.123Z,44.80
2023-03-15T07:18:10.213Z,45.05
2023-03-15T07:20:41.133Z,45.51
2023-03-15T07:23:12.750Z,45.23
2023-03-15T07:25:54.274Z,45.51
2023-03-15T07:28:27.099Z,45.97
2023-03-15T07:31:00.007Z,46.21
2023-03-15T07:33:32.123Z,46.27
2023-03-15T07:36:05.176Z,46.55
2023-03-15T07:38:37.055Z,46.95
2023-03-15T07:41:09.257Z,47.13
2023-03-15T07:43:44.616Z,47.43
2023-03-15T07:46:21.371Z,47.65
2023-03-15T07:48:52.301Z,47.75
2023-03-15T07:51:27.024Z,47.38
2023-03-15T07:53:57.686Z,47.35
2023-03-15T07:56:30.036Z,47.22
2023-03-15T07:59:01.117Z,47.42
2023-03-15T08:01:31.900Z,47.83
2023-03-15T08:04:05.149Z,47.95
2023-03-15T08:06:35.542Z,47.74
2023-03-15T08:09:09.874Z,47.90
2023-03-15T08:11:46.315Z,47.72
2023-03-15T08:14:23.276Z,47.73
2023-03-15T08:16:54.998Z,47.56
2023-03-15T08:19:26.390Z,48.04
2023-03-15T08:21:58.323Z,47.95
2023-03-15T08:24:28.960Z,47.78
2023-03-15T08:26:59.703Z,47.92
2023-03-15T08:29:30.949Z,48.10
2023-03-15T08:32:05.152Z,47.41
2023-03-15T08:34:39.818Z,47.74
2023-03-15T08:37:12.875Z,47.56
2023-03-15T08:39:43.527Z,47.50
2023-03-15T08:42:16.585Z,47.21
2023-03-15T08:44:47.488Z,47.57
2023-03-15T08:47:18.587Z,47.61
2023-03-15T08:49:49.636Z,47.73
2023-03-15T08:52:20.501Z,47.89
2023-03-15T08:54:50.945Z,47.22
2023-03-15T08:57:22.094Z,47.34
2023-03-15T08:59:56.922Z,47.45
2023-03-15T09:02:28.594Z,47.50
2023-03-15T09:05:02.289Z,47.13
2023-03-15T09:07:33.761Z,47.54
2023-03-15T09:10:06.824Z,47.93
2023-03-15T09:12:38.949Z,48.07
2023-03-15T09:15:10.886Z,47.87
2023-03-15T09:17:42.684Z,47.04
2023-03-15T09:20:20.071Z,47.30
2023-03-15T09:22:58.435Z,47.57
2023-03-15T09:25:29.992Z,46.78
2023-03-15T09:28:01.625Z,47.39
2023-03-15T09:30:33.579Z,46.74
2023-03-15T09:33:06.813Z,47.08
2023-03-15T09:35:37.953Z,47.18
2023-03-15T09:38:08.513Z,47.18
2023-03-15T09:40:46.318Z,47.12
2023-03-15T09:43:37.856Z,47.05
2023-03-15T09:46:28.926Z,47.10
2023-03-15T09:49:22.104Z,46.66
2023-03-15T09:51:54.958Z,46.59
2023-03-15T09:54:45.814Z,46.54
2023-03-15T09:57:25.793Z,46.37
2023-03-15T09:59:57.435Z,46.04
2023-03-15T10:02:31.516Z,46.28
2023-03-15T10:05:08.774Z,46.39
2023-03-15T10:07:40.003Z,46.08
2023-03-15T10:10:20.480Z,46.16
2023-03-15T10:13:07.819Z,45.89
2023-03-15T10:16:00.233Z,46.22
2023-03-15T10:18:37.069Z,45.96
2023-03-15T10:21:14.302Z,46.59
2023-03-15T10:23:57.279Z,46.58
2023-03-15T10:26:34.077Z,46.27
2023-03-15T10:29:15.745Z,46.41
2023-03-15T10:31:48.185Z,46.15
2023-03-15T10:34:19.090Z,46.34
2023-03-15T10:36:55.299Z,46.51
2023-03-15T10:39:27.459Z,46.31
2023-03-15T10:41:58.853Z,46.57
2023-03-15T10:44:29.565Z,46.36
2023-03-15T10:47:23.731Z,46.18
2023-03-15T10:50:00.809Z,46.08
2023-03-15T10:52:40.799Z,45.93
2023-03-15T10:55:23.475Z,46.11
2023-03-15T10:57:58.938Z,46.32
2023-03-15T11:00:34.016Z,46.38
2023-03-15T11:03:07.959Z,46.49
2023-03-15T11:05:48.745Z,46.14
2023-03-15T11:08:22.298Z,46.22
2023-03-15T11:11:04.784Z,47.71
2023-03-15T11:13:40.632Z,47.56
2023-03-15T11:16:17.137Z,46.64
2023-03-15T11:18:56.241Z,46.44
2023-03-15T11:21:37.834Z,46.88
2023-03-15T11:24:09.620Z,46.23
2023-03-15T11:26:43.979Z,46.73
2023-03-15T11:29:14.752Z,45.95
2023-03-15T11:31:46.366Z,46.49
2023-03-15T11:34:46.097Z,46.53
2023-03-15T11:37:23.578Z,46.24
2023-03-15T11:40:11.306Z,46.41
2023-03-15T11:43:05.448Z,46.71
2023-03-15T11:45:44.925Z,46.43
2023-03-15T11:48:49.139Z,46.49
2023-03-15T11:51:20.024Z,46.13
2023-03-15T11:54:19.029Z,46.12
2023-03-15T11:56:58.636Z,45.92
2023-03-15T11:59:39.372Z,45.89
2023-03-15T12:02:19.371Z,46.29
2023-03-15T12:04:52.454Z,45.60
2023-03-15T12:07:26.963Z,45.28
2023-03-15T12:10:01.842Z,45.72
2023-03-15T12:12:32.031Z,45.87
2023-03-15T12:15:20.837Z,46.19
2023-03-15T12:17:51.739Z,45.69
2023-03-15T12:20:38.821Z,46.50
2023-03-15T12:23:21.747Z,45.84
2023-03-15T12:25:55.723Z,45.79
2023-03-15T12:28:40.280Z,46.12
2023-03-15T12:31:16.838Z,46.03
2023-03-15T12:33:53.556Z,46.04
2023-03-15T12:36:40.015Z,46.42
2023-03-15T12:39:17.698Z,45.97
2023-03-15T12:41:51.034Z,46.26
2023-03-15T12:44:27.719Z,47.41
2023-03-15T12:47:05.680Z,46.70
2023-03-15T12:49:45.403Z,46.59
2023-03-15T12:52:19.360Z,47.38
2023-03-15T12:54:59.033Z,46.39
2023-03-15T12:57:31.794Z,46.67
2023-03-15T13:00:07.689Z,46.97
2023-03-15T13:02:44.691Z,47.02
2023-03-15T13:05:30.078Z,47.37
2023-03-15T13:08:10.955Z,47.37
2023-03-15T13:11:05.397Z,46.79
2023-03-15T13:14:00.421Z,47.34
2023-03-15T13:16:47.912Z,47.44
2023-03-15T13:19:21.132Z,47.06
2023-03-15T13:21:56.094Z,46.83
2023-03-15T13:24:45.185Z,46.48
2023-03-15T13:27:44.277Z,46.73
2023-03-15T13:30:36.361Z,46.41
2023-03-15T13:33:09.825Z,45.91
2023-03-15T13:36:24.562Z,46.15
2023-03-15T13:38:57.335Z,46.23
2023-03-15T13:41:31.377Z,46.29
2023-03-15T13:44:06.038Z,46.73
2023-03-15T13:46:36.740Z,46.32
2023-03-15T13:49:07.720Z,46.46
2023-03-15T13:51:40.119Z,46.81
2023-03-15T13:54:22.556Z,46.92
2023-03-15T13:57:15.435Z,47.29
2023-03-15T13:59:53.598Z,46.90
2023-03-15T14:02:28.820Z,46.50
2023-03-15T14:05:03.710Z,46.98
2023-03-15T14:07:41.740Z,46.52
2023-03-15T14:10:22.942Z,46.08
2023-03-15T14:12:54.999Z,46.25
2023-03-15T14:15:33.647Z,46.35
2023-03-15T14:18:12.906Z,46.49
2023-03-15T14:20:48.690Z,46.20
2023-03-15T14:23:23.717Z,46.28
2023-03-15T14:26:15.438Z,46.42
2023-03-15T14:28:56.395Z,46.44
2023-03-15T14:31:33.291Z,46.46
2023-03-15T14:34:20.383Z,46.65
2023-03-15T14:36:54.872Z,46.30
2023-03-15T14:39:32.454Z,46.16
2023-03-15T14:42:03.285Z,46.44
2023-03-15T14:44:36.124Z,46.06
2023-03-15T14:47:18.171Z,46.44
2023-03-15T14:49:48.604Z,46.38
2023-03-15T14:52:28.878Z,46.78
2023-03-15T14:54:59.943Z,46.83
2023-03-15T14:57:31.724Z,46.53
2023-03-15T15:00:02.441Z,46.65
2023-03-15T15:02:34.544Z,46.92
2023-03-15T15:05:14.509Z,46.87
2023-03-15T15:07:45.948Z,47.11
2023-03-15T15:10:16.468Z,47.09
2023-03-15T15:12:50.778Z,46.90
2023-03-15T15:15:27.209Z,47.05
2023-03-15T15:17:58.136Z,47.37
2023-03-15T15:20:29.462Z,47.58
2023-03-15T15:23:02.254Z,47.45
2023-03-15T15:25:36.899Z,47.11
2023-03-15T15:28:07.597Z,47.33
2023-03-15T15:30:38.187Z,47.47
2023-03-15T15:33:09.679Z,47.26
2023-03-15T15:35:40.924Z,47.33
2023-03-15T15:38:18.003Z,47.72
2023-03-15T15:40:48.626Z,47.51
2023-03-15T15:43:19.957Z,47.59
2023-03-15T15:45:51.006Z,47.90
2023-03-15T15:48:21.688Z,47.84
2023-03-15T15:50:52.661Z,47.93
2023-03-15T15:53:23.965Z,47.72
2023-03-15T15:55:55.324Z,47.74
2023-03-15T15:58:26.919Z,48.02
2023-03-15T16:00:58.770Z,48.11
2023-03-15T16:03:30.023Z,48.21
2023-03-15T16:06:01.141Z,47.58
2023-03-15T16:08:36.148Z,47.84
2023-03-15T16:11:07.520Z,48.26
2023-03-15T16:13:38.179Z,48.34
2023-03-15T16:16:14.414Z,48.55
2023-03-15T16:18:45.996Z,48.94
2023-03-15T16:21:36.253Z,49.11
2023-03-15T16:24:31.165Z,48.72
2023-03-15T16:27:04.320Z,48.62
2023-03-15T16:29:48.892Z,48.78
2023-03-15T16:32:29.799Z,48.90
2023-03-15T16:35:16.330Z,48.49
2023-03-15T16:37:47.661Z,48.56
2023-03-15T16:40:23.961Z,48.48
2023-03-15T16:42:54.943Z,48.45
2023-03-15T16:45:27.641Z,49.33
2023-03-15T16:47:58.364Z,49.31
2023-03-15T16:50:28.920Z,49.91
2023-03-15T16:53:01.540Z,49.55
2023-03-15T16:55:39.527Z,49.98
2023-03-15T16:58:17.394Z,50.33
2023-03-15T17:00:48.917Z,50.35
2023-03-15T17:03:19.647Z,50.37
2023-03-15T17:05:50.418Z,50.62
2023-03-15T17:08:21.909Z,50.80
2023-03-15T17:10:55.243Z,50.41
2023-03-15T17:13:30.522Z,50.47
2023-03-15T17:16:03.834Z,50.76
2023-03-15T17:18:35.657Z,50.77
2023-03-15T17:21:06.889Z,50.77
2023-03-15T17:23:37.675Z,51.38
2023-03-15T17:26:19.680Z,51.13
2023-03-15T17:28:50.785Z,51.66
2023-03-15T17:31:28.747Z,51.46
2023-03-15T17:34:01.296Z,51.66
2023-03-15T17:36:36.162Z,52.18
2023-03-15T17:39:11.328Z,52.13
2023-03-15T17:41:45.936Z,51.80
2023-03-15T17:44:17.109Z,51.86
2023-03-15T17:46:53.998Z,51.81
2023-03-15T17:49:24.776Z,51.94
2023-03-15T17:51:55.076Z,52.40
2023-03-15T17:54:26.415Z,52.41
2023-03-15T17:57:00.441Z,52.36
2023-03-15T17:59:30.700Z,51.89
2023-03-15T18:02:01.157Z,52.43
2023-03-15T18:04:32.148Z,51.93
2023-03-15T18:07:02.464Z,52.23
2023-03-15T18:09:32.899Z,52.06
2023-03-15T18:12:03.346Z,52.14
2023-03-15T18:14:38.248Z,52.28
2023-03-15T18:17:09.302Z,52.15
2023-03-15T18:19:40.156Z,52.41
2023-03-15T18:22:18.616Z,52.75
2023-03-15T18:24:49.325Z,52.19
2023-03-15T18:27:20.818Z,52.17
2023-03-15T18:29:53.646Z,52.46
2023-03-15T18:32:23.982Z,52.56
2023-03-15T18:34:56.560Z,52.35
2023-03-15T18:37:27.260Z,52.59
2023-03-15T18:39:58.158Z,52.20
2023-03-15T18:42:29.310Z,52.06
2023-03-15T18:44:59.613Z,52.17
2023-03-15T18:47:30.316Z,52.42
2023-03-15T18:50:09.695Z,52.81
2023-03-15T18:52:41.958Z,52.45
2023-03-15T18:55:14.464Z,52.36
2023-03-15T18:57:47.169Z,52.95
2023-03-15T19:00:28.264Z,52.72
2023-03-15T19:03:01.590Z,52.73
2023-03-15T19:05:35.636Z,52.80
2023-03-15T19:08:06.295Z,53.09
2023-03-15T19:10:37.769Z,52.89
2023-03-15T19:13:08.515Z,52.84
2023-03-15T19:15:39.160Z,53.30
2023-03-15T19:18:09.573Z,53.40
2023-03-15T19:20:47.469Z,53.18
2023-03-15T19:23:17.900Z,53.04
2023-03-15T19:25:50.189Z,53.16
2023-03-15T19:28:21.261Z,53.23
2023-03-15T19:30:51.977Z,53.64
2023-03-15T19:33:22.477Z,53.88
2023-03-15T19:35:53.867Z,53.52
2023-03-15T19:38:24.425Z,53.53
2023-03-15T19:40:57.660Z,53.91
2023-03-15T19:43:28.655Z,54.05
2023-03-15T19:46:02.344Z,54.18
2023-03-15T19:48:42.964Z,54.10
2023-03-15T19:51:13.358Z,54.09
2023-03-15T19:53:44.224Z,53.87
2023-03-15T19:56:14.955Z,54.04
2023-03-15T19:58:48.408Z,54.07
2023-03-15T20:01:18.573Z,54.50
2023-03-15T20:03:49.480Z,54.60
2023-03-15T20:06:20.197Z,54.61
2023-03-15T20:08:50.529Z,54.61
2023-03-15T20:11:25.886Z,54.67
2023-03-15T20:13:56.615Z,54.84
2023-03-15T20:16:27.221Z,54.56
2023-03-15T20:18:58.114Z,54.77
2023-03-15T20:21:30.247Z,54.99
2023-03-15T20:24:01.401Z,54.68
2023-03-15T20:26:34.926Z,54.81
2023-03-15T20:29:05.290Z,55.22
2023-03-15T20:31:35.833Z,55.43
2023-03-15T20:34:06.829Z,55.55
2023-03-15T20:36:37.585Z,55.30
2023-03-15T20:39:09.132Z,55.71
2023-03-15T20:41:40.334Z,55.32
2023-03-15T20:44:11.572Z,55.45
2023-03-15T20:46:43.247Z,55.79
2023-03-15T20:49:15.831Z,55.53
2023-03-15T20:51:46.462Z,55.89
2023-03-15T20:54:17.457Z,55.54
2023-03-15T20:56:49.261Z,55.85
2023-03-15T20:59:19.939Z,55.85
2023-03-15T21:01:52.311Z,55.79
2023-03-15T21:04:27.068Z,55.91
2023-03-15T21:06:57.808Z,55.90
2023-03-15T21:09:28.048Z,56.34
2023-03-15T21:11:58.660Z,56.03
2023-03-15T21:14:29.785Z,56.32
2023-03-15T21:17:05.165Z,56.57
2023-03-15T21:19:35.405Z,56.49
2023-03-15T21:22:05.742Z,56.50
2023-03-15T21:24:43.254Z,56.72
2023-03-15T21:27:19.987Z,56.89
2023-03-15T21:29:50.711Z,56.52
2023-03-15T21:32:21.475Z,56.95
2023-03-15T21:34:52.140Z,56.89
2023-03-15T21:37:22.996Z,56.67
2023-03-15T21:39:55.013Z,56.68
2023-03-15T21:42:26.171Z,57.11
2023-03-15T21:45:02.105Z,57.00
2023-03-15T21:47:32.384Z,56.74
2023-03-15T21:50:04.087Z,57.06
2023-03-15T21:52:37.165Z,57.15
2023-03-15T21:55:10.478Z,57.51
2023-03-15T21:57:41.100Z,56.87
2023-03-15T22:00:17.028Z,57.40
2023-03-15T22:02:47.949Z,57.23
2023-03-15T22:05:18.698Z,57.20
2023-03-15T22:07:50.657Z,57.49
2023-03-15T22:10:23.449Z,57.32
2023-03-15T22:12:55.005Z,57.66
2023-03-15T22:15:26.216Z,57.63
2023-03-15T22:17:58.634Z,57.64
2023-03-15T22:20:30.409Z,57.82
2023-03-15T22:23:01.195Z,58.24
2023-03-15T22:25:33.233Z,58.08
2023-03-15T22:28:03.774Z,58.50
2023-03-15T22:30:34.906Z,58.16
2023-03-15T22:33:05.455Z,58.40
2023-03-15T22:35:36.277Z,58.59
2023-03-15T22:38:10.867Z,58.40
2023-03-15T22:40:46.513Z,58.92
2023-03-15T22:43:17.730Z,59.02
2023-03-15T22:45:48.061Z,59.08
2023-03-15T22:48:19.814Z,58.62
2023-03-15T22:50:58.366Z,58.82
2023-03-15T22:53:29.875Z,58.71
2023-03-15T22:56:01.699Z,59.12
2023-03-15T22:58:32.777Z,58.87
2023-03-15T23:01:03.677Z,58.64
2023-03-15T23:03:34.728Z,58.75
2023-03-15T23:06:06.201Z,58.81
2023-03-15T23:08:36.746Z,58.74
2023-03-15T23:11:10.641Z,59.06
2023-03-15T23:13:41.409Z,58.27
2023-03-15T23:16:12.660Z,58.34
2023-03-15T23:18:43.521Z,58.22
2023-03-15T23:21:15.851Z,58.52
2023-03-15T23:23:46.257Z,58.13
2023-03-15T23:26:17.746Z,58.08
2023-03-15T23:28:48.767Z,57.82
2023-03-15T23:31:19.639Z,57.61
2023-03-15T23:33:49.947Z,57.97
2023-03-15T23:36:21.164Z,57.53
2023-03-15T23:38:54.337Z,57.64
2023-03-15T23:41:25.319Z,57.70
2023-03-15T23:43:57.700Z,57.92
2023-03-15T23:46:28.154Z,56.76
2023-03-15T23:48:59.153Z,56.88
2023-03-15T23:51:30.110Z,56.30
2023-03-15T23:54:02.403Z,55.98
2023-03-15T23:56:32.887Z,56.63
2023-03-15T23:59:03.537Z,55.75
